createdAt,value
2022-12-05T00:00:17.456Z,996.36
2022-12-05T00:05:17.447Z,996.39
2022-12-05T00:10:17.325Z,996.30
2022-12-05T00:15:17.336Z,996.29
2022-12-05T00:20:17.259Z,996.38
2022-12-05T00:25:17.191Z,996.42
2022-12-05T05:00:29.744Z,997.02
2022-12-05T05:05:29.669Z,996.99
2022-12-05T05:10:29.617Z,997.02
2022-12-05T05:15:36.684Z,997.01
2022-12-05T05:20:29.519Z,997.03
2022-12-05T05:25:29.443Z,997.09
2022-12-05T05:30:29.406Z,997.11
2022-12-05T05:35:29.376Z,997.14
2022-12-05T05:40:29.298Z,997.16
2022-12-05T05:45:29.244Z,997.26
2022-12-05T05:50:29.192Z,997.27
2022-12-05T05:55:29.169Z,997.23
2022-12-05T06:00:29.083Z,997.25
2022-12-05T06:05:29.213Z,997.32
2022-12-05T06:10:28.988Z,997.39
2022-12-05T06:15:28.982Z,997.40
2022-12-05T06:20:28.874Z,997.42
2022-12-05T06:25:28.836Z,997.43
2022-12-05T06:30:28.782Z,997.43
2022-12-05T06:35:28.757Z,997.48
2022-12-05T06:40:28.675Z,997.59
2022-12-05T06:45:28.712Z,997.61
2022-12-05T06:50:28.581Z,997.60
2022-12-05T06:55:28.551Z,997.65
2022-12-05T07:00:28.456Z,997.66
2022-12-05T07:05:28.411Z,997.71
2022-12-05T07:10:28.361Z,997.68
2022-12-05T07:15:28.333Z,997.77
2022-12-05T07:20:38.433Z,997.77
2022-12-05T07:25:29.221Z,997.87
2022-12-05T07:30:28.286Z,997.90
2022-12-05T07:35:28.165Z,997.96
2022-12-05T07:40:28.050Z,997.91
2022-12-05T07:45:28.080Z,998.04
2022-12-05T07:50:27.947Z,998.10
2022-12-05T07:55:27.922Z,998.12
2022-12-05T08:00:27.909Z,998.17
2022-12-05T08:05:27.788Z,998.22
2022-12-05T08:10:27.740Z,998.22
2022-12-05T08:15:27.720Z,998.31
2022-12-05T08:20:27.625Z,998.30
2022-12-05T08:25:27.582Z,998.31
2022-12-05T08:30:27.696Z,998.41
2022-12-05T08:35:27.491Z,998.41
2022-12-05T08:40:27.437Z,998.57
2022-12-05T08:45:27.381Z,998.60
2022-12-05T08:50:27.310Z,998.64
2022-12-05T08:55:27.309Z,998.65
2022-12-05T09:00:27.212Z,998.71
2022-12-05T09:05:29.284Z,998.65
2022-12-05T09:10:27.103Z,998.67
2022-12-05T09:15:27.164Z,998.66
2022-12-05T09:20:26.998Z,998.74
2022-12-05T09:25:26.977Z,998.75
2022-12-05T09:30:26.898Z,998.82
2022-12-05T09:35:26.879Z,998.84
2022-12-05T09:40:26.789Z,998.81
2022-12-05T09:45:26.765Z,998.83
2022-12-05T09:50:26.701Z,998.81
2022-12-05T09:55:26.681Z,998.84
2022-12-05T10:00:26.582Z,998.81
2022-12-05T10:05:26.764Z,998.81
2022-12-05T10:10:26.478Z,998.91
2022-12-05T10:15:26.471Z,998.78
2022-12-05T10:20:26.374Z,998.76
2022-12-05T10:25:26.339Z,998.85
2022-12-05T10:30:26.275Z,998.88
2022-12-05T10:35:26.281Z,998.86
2022-12-05T10:40:26.162Z,998.93
2022-12-05T10:45:26.121Z,998.88
2022-12-05T10:50:26.063Z,998.96
2022-12-05T10:55:26.035Z,998.93
2022-12-05T11:00:25.966Z,998.83
2022-12-05T11:05:25.964Z,998.87
2022-12-05T11:10:27.147Z,998.84
2022-12-05T11:15:25.819Z,998.76
2022-12-05T11:20:25.753Z,998.78
2022-12-05T11:25:25.674Z,998.88
2022-12-05T11:30:25.653Z,998.89
2022-12-05T11:35:25.586Z,998.88
2022-12-05T11:40:29.426Z,998.85
2022-12-05T11:45:26.570Z,998.79
2022-12-05T11:50:25.408Z,998.74
2022-12-05T11:55:25.380Z,998.75
2022-12-05T12:00:25.313Z,998.75
2022-12-05T12:05:25.260Z,998.74
2022-12-05T12:10:25.207Z,998.74
2022-12-05T12:15:25.162Z,998.79
2022-12-05T12:20:25.094Z,998.77
2022-12-05T12:25:25.035Z,998.74
2022-12-05T12:30:25.002Z,998.64
2022-12-05T12:35:24.936Z,998.60
2022-12-05T12:40:24.877Z,998.63
2022-12-05T12:45:24.904Z,998.67
2022-12-05T12:50:24.771Z,998.72
2022-12-05T12:55:24.732Z,998.64
2022-12-05T13:00:24.660Z,998.71
2022-12-05T13:05:24.603Z,998.60
2022-12-05T13:10:24.549Z,998.58
2022-12-05T13:15:24.567Z,998.62
2022-12-05T13:20:24.445Z,998.60
2022-12-05T13:25:24.391Z,998.53
2022-12-05T13:30:24.341Z,998.53
2022-12-05T13:35:24.304Z,998.63
2022-12-05T13:40:24.233Z,998.63
2022-12-05T13:45:24.186Z,998.64
2022-12-05T13:50:24.222Z,998.71
2022-12-05T13:55:24.115Z,998.80
2022-12-05T14:00:24.042Z,998.77
2022-12-05T14:05:23.962Z,998.75
2022-12-05T14:10:23.922Z,998.78
2022-12-05T14:15:23.890Z,998.79
2022-12-05T14:20:23.818Z,998.75
2022-12-05T14:25:23.766Z,998.75
2022-12-05T14:30:23.719Z,998.87
2022-12-05T14:35:23.683Z,998.84
2022-12-05T14:40:23.610Z,998.95
2022-12-05T14:45:23.703Z,998.90
2022-12-05T14:50:23.595Z,998.93
2022-12-05T14:55:26.817Z,998.98
2022-12-05T15:00:23.459Z,999.09
2022-12-05T15:05:23.350Z,999.12
2022-12-05T15:10:23.305Z,999.16
2022-12-05T15:15:23.287Z,999.11
2022-12-05T15:20:23.209Z,999.08
2022-12-05T15:25:23.124Z,999.13
2022-12-05T15:30:23.090Z,999.05
2022-12-05T15:35:23.075Z,999.21
2022-12-05T15:40:22.989Z,999.23
2022-12-05T15:45:22.932Z,999.23
2022-12-05T15:50:22.883Z,999.21
2022-12-05T15:55:22.849Z,999.35
2022-12-05T16:00:22.767Z,999.40
2022-12-05T16:05:22.724Z,999.39
2022-12-05T16:10:29.141Z,999.34
2022-12-05T16:15:23.641Z,999.48
2022-12-05T16:20:22.564Z,999.42
2022-12-05T16:25:22.517Z,999.49
2022-12-05T16:30:22.479Z,999.56
2022-12-05T16:35:22.427Z,999.55
2022-12-05T16:40:22.359Z,999.63
2022-12-05T16:45:22.305Z,999.70
2022-12-05T16:50:22.257Z,999.74
2022-12-05T16:55:22.216Z,999.73
2022-12-05T17:00:22.156Z,999.65
2022-12-05T17:05:22.110Z,999.65
2022-12-05T17:10:22.040Z,999.72
2022-12-05T17:15:22.024Z,999.65
2022-12-05T17:20:21.950Z,999.69
2022-12-05T17:25:21.882Z,999.71
2022-12-05T17:30:21.843Z,999.73
2022-12-05T17:35:21.806Z,999.75
2022-12-05T17:40:21.739Z,999.70
2022-12-05T17:45:21.674Z,999.73
2022-12-05T17:50:21.644Z,999.79
2022-12-05T17:55:21.601Z,999.77
2022-12-05T18:00:21.526Z,999.82
2022-12-05T18:05:21.464Z,999.86
2022-12-05T18:10:21.422Z,999.82
2022-12-05T18:15:21.397Z,999.86
2022-12-05T18:20:21.322Z,999.92
2022-12-05T18:25:21.257Z,999.98
2022-12-05T18:30:21.212Z,999.98
2022-12-05T18:35:21.187Z,999.97
2022-12-05T18:40:21.113Z,999.91
2022-12-05T18:45:21.061Z,999.95
2022-12-05T18:50:21.009Z,1000.06
2022-12-05T18:55:39.493Z,1000.05
2022-12-05T19:00:21.907Z,1000.08
2022-12-05T19:05:20.841Z,1000.11
2022-12-05T19:10:20.850Z,1000.15
2022-12-05T19:15:20.766Z,1000.12
2022-12-05T19:20:20.696Z,1000.18
2022-12-05T19:25:20.643Z,1000.18
2022-12-05T19:30:20.599Z,1000.20
2022-12-05T19:35:20.571Z,1000.27
2022-12-05T19:40:20.484Z,1000.37
2022-12-05T19:45:20.454Z,1000.33
2022-12-05T19:50:20.370Z,1000.33
2022-12-05T19:55:20.355Z,1000.28
2022-12-05T20:00:20.314Z,1000.32
2022-12-05T20:05:20.217Z,1000.26
2022-12-05T20:10:20.174Z,1000.23
2022-12-05T20:15:20.131Z,1000.19
2022-12-05T20:20:20.072Z,1000.28
2022-12-05T20:25:20.009Z,1000.22
2022-12-05T20:30:19.977Z,1000.27
2022-12-05T20:35:24.226Z,1000.33
2022-12-05T20:40:19.871Z,1000.29
2022-12-05T20:45:19.799Z,1000.30
2022-12-05T20:50:19.770Z,1000.28
2022-12-05T20:55:19.716Z,1000.26
2022-12-05T21:00:19.668Z,1000.24
2022-12-05T21:05:19.593Z,1000.20
2022-12-05T21:10:19.564Z,1000.23
2022-12-05T21:15:19.514Z,1000.17
2022-12-05T21:20:19.450Z,1000.17
2022-12-05T21:25:19.386Z,1000.07
2022-12-05T21:30:19.360Z,1000.12
2022-12-05T21:35:19.304Z,1000.13
2022-12-05T21:40:19.243Z,1000.14
2022-12-05T21:45:19.178Z,1000.13
2022-12-05T21:50:19.151Z,1000.18
2022-12-05T21:55:19.097Z,1000.13
2022-12-05T22:00:19.045Z,1000.16
2022-12-05T22:05:18.970Z,1000.19
2022-12-05T22:10:19.192Z,1000.17
2022-12-05T22:15:18.889Z,1000.19
2022-12-05T22:20:18.837Z,1000.11
2022-12-05T22:25:18.764Z,1000.23
2022-12-05T22:30:18.724Z,1000.09
2022-12-05T22:35:18.680Z,1000.19
2022-12-05T22:40:18.684Z,1000.21
2022-12-05T22:45:18.559Z,1000.16
2022-12-05T22:50:18.530Z,1000.12
2022-12-05T22:55:18.509Z,1000.17
2022-12-05T23:00:18.424Z,1000.17
2022-12-05T23:05:18.348Z,1000.13
2022-12-05T23:10:18.322Z,1000.10
2022-12-05T23:15:18.263Z,1000.03
2022-12-05T23:20:18.206Z,999.96
2022-12-05T23:25:18.139Z,999.96
2022-12-05T23:30:18.110Z,999.94
2022-12-05T23:35:18.059Z,999.92
2022-12-05T23:40:17.999Z,999.88
2022-12-05T23:45:17.933Z,999.90
2022-12-05T23:50:17.926Z,999.84
2022-12-05T23:55:17.861Z,999.74
